Terminal Aerodrome Forecast
Issued by NWS Jacksonville, FL

Home | Current Version | Previous Version | Text Only | Print | Product List | Glossary On
Versions: 1 2 3 4 5 6 7 8 9 10 11 12 13
000
FTUS42 KJAX 192300
TAFSSI
TAF
KSSI 192329Z 2000/2024 06006KT P6SM FEW250
     FM200800 04004KT P6SM SCT030 SCT250
     FM201500 07008KT P6SM SCT045=

USA.gov is the U.S. government's official web portal to all federal, state and local government web resources and services.